Time;durP1;ratioP1;P1;durP2;ratioP2;P2;SDS_P1;SDS_P2;PMS_P1;PMS_P2;Temp;Humidity;BMP_temperature;BMP_pressure;BME280_temperature;BME280_humidity;BME280_pressure;Samples;Min_cycle;Max_cycle;Signal;HPM_P1;HPM_P2
2023/09/25 00:00:20;;;;;;;;;0.00;0.00;;;;;;;;5053304;28;8925;-82
2023/09/25 00:02:48;;;;;;;;;1.00;1.00;;;;;;;;5050447;28;8886;-80
2023/09/25 00:05:16;;;;;;;;;1.00;1.00;;;;;;;;5043872;28;9000;-79
2023/09/25 00:07:43;;;;;;;;;0.50;0.50;;;;;;;;5051618;28;8846;-80
2023/09/25 00:10:12;;;;;;;;;1.75;1.75;;;;;;;;5050780;28;8845;-82
2023/09/25 00:12:46;;;;;;;;;1.50;1.50;;;;;;;;5050257;28;8885;-79
2023/09/25 00:15:13;;;;;;;;;0.75;0.75;;;;;;;;5045965;28;8853;-80
2023/09/25 00:17:42;;;;;;;;;1.00;1.00;;;;;;;;5047036;28;8850;-83
2023/09/25 00:20:14;;;;;;;;;1.00;1.00;;;;;;;;5047617;28;8998;-79
2023/09/25 00:22:42;;;;;;;;;1.33;1.33;;;;;;;;5060091;28;8859;-79
2023/09/25 00:25:09;;;;;;;;;1.00;1.00;;;;;;;;5051325;28;8970;-79
2023/09/25 00:27:38;;;;;;;;;1.00;1.00;;;;;;;;5058130;28;8938;-80
2023/09/25 00:30:09;;;;;;;;;1.00;1.00;;;;;;;;5048082;28;9051;-83
2023/09/25 00:32:37;;;;;;;;;1.67;1.67;;;;;;;;5051028;28;8952;-80
2023/09/25 00:35:06;;;;;;;;;0.67;0.00;;;;;;;;5050591;28;9106;-78
2023/09/25 00:37:34;;;;;;;;;1.00;1.00;;;;;;;;5051025;28;9001;-83
2023/09/25 00:40:13;;;;;;;;;1.33;1.00;;;;;;;;5048198;28;9089;-85
2023/09/25 00:42:42;;;;;;;;;1.00;1.00;;;;;;;;5044769;28;9290;-86
2023/09/25 00:45:12;;;;;;;;;1.00;1.00;;;;;;;;5049273;28;9955;-83
2023/09/25 00:47:44;;;;;;;;;1.00;1.00;;;;;;;;5046138;28;9195;-83
2023/09/25 00:50:11;;;;;;;;;0.33;0.33;;;;;;;;5050146;28;9169;-79
2023/09/25 00:52:41;;;;;;;;;0.00;0.00;;;;;;;;5050369;28;9096;-80
2023/09/25 00:55:12;;;;;;;;;1.00;1.00;;;;;;;;5052211;28;9174;-80
2023/09/25 00:57:41;;;;;;;;;0.33;0.33;;;;;;;;5051015;28;9324;-81
2023/09/25 01:00:11;;;;;;;;;2.00;2.00;;;;;;;;5042275;28;9449;-81
2023/09/25 01:02:41;;;;;;;;;1.00;1.00;;;;;;;;5041354;28;9250;-80
2023/09/25 01:05:12;;;;;;;;;2.00;1.00;;;;;;;;5050744;28;9324;-79
2023/09/25 01:07:42;;;;;;;;;2.67;1.00;;;;;;;;5046015;28;9258;-86
2023/09/25 01:10:14;;;;;;;;;1.00;1.00;;;;;;;;5041356;28;9291;-81
2023/09/25 01:12:43;;;;;;;;;1.00;1.00;;;;;;;;5049614;28;9334;-81
2023/09/25 01:15:12;;;;;;;;;1.00;1.00;;;;;;;;5040194;28;9488;-79
2023/09/25 01:17:43;;;;;;;;;1.00;1.00;;;;;;;;5041284;28;9500;-82
2023/09/25 01:20:12;;;;;;;;;0.00;0.00;;;;;;;;5049802;28;9345;-82
2023/09/25 01:22:41;;;;;;;;;1.00;1.00;;;;;;;;5049834;28;9519;-81
2023/09/25 01:25:10;;;;;;;;;1.50;1.50;;;;;;;;5043282;28;9435;-78
2023/09/25 01:27:38;;;;;;;;;0.00;0.00;;;;;;;;5049711;28;9411;-77
2023/09/25 01:30:08;;;;;;;;;1.00;1.00;;;;;;;;5054052;28;9306;-79
2023/09/25 01:32:37;;;;;;;;;0.33;0.33;;;;;;;;5054972;28;9332;-81
2023/09/25 01:35:05;;;;;;;;;0.25;0.25;;;;;;;;5051039;28;9469;-79
2023/09/25 01:37:32;;;;;;;;;0.00;0.00;;;;;;;;5054596;28;9447;-82
2023/09/25 01:40:05;;;;;;;;;0.00;0.00;;;;;;;;5053462;28;9616;-81
2023/09/25 01:42:32;;;;;;;;;0.00;0.00;;;;;;;;5044128;28;9721;-85
2023/09/25 01:44:59;;;;;;;;;1.25;1.25;;;;;;;;5049595;28;10495;-83
2023/09/25 01:47:26;;;;;;;;;0.25;0.25;;;;;;;;5050043;28;10110;-86
2023/09/25 01:49:54;;;;;;;;;0.00;0.00;;;;;;;;5049974;28;9858;-84
2023/09/25 01:52:21;;;;;;;;;0.00;0.00;;;;;;;;5050280;28;9849;-79
2023/09/25 01:54:48;;;;;;;;;1.25;1.25;;;;;;;;5047131;28;10407;-82
2023/09/25 01:57:18;;;;;;;;;1.00;1.00;;;;;;;;5049639;28;9789;-79
2023/09/25 01:59:45;;;;;;;;;0.75;0.75;;;;;;;;5049768;28;9620;-79
2023/09/25 02:02:12;;;;;;;;;1.50;1.50;;;;;;;;5048786;28;9595;-78
2023/09/25 02:04:42;;;;;;;;;1.00;1.00;;;;;;;;5049677;28;9770;-82
2023/09/25 02:07:11;;;;;;;;;1.50;1.50;;;;;;;;5047675;28;9966;-79
2023/09/25 02:09:38;;;;;;;;;1.00;1.00;;;;;;;;5042633;28;9935;-80
2023/09/25 02:12:06;;;;;;;;;2.00;0.00;;;;;;;;5051115;28;10027;-78
2023/09/25 02:14:35;;;;;;;;;2.00;2.00;;;;;;;;5051467;28;9596;-79
2023/09/25 02:17:02;;;;;;;;;1.75;1.75;;;;;;;;5050391;28;9919;-80
2023/09/25 02:19:29;;;;;;;;;1.00;1.00;;;;;;;;5047683;28;9810;-81
2023/09/25 02:21:58;;;;;;;;;0.50;0.50;;;;;;;;5046040;28;10471;-80
2023/09/25 02:24:25;;;;;;;;;2.00;2.00;;;;;;;;5048760;28;9858;-80
2023/09/25 02:26:52;;;;;;;;;2.25;1.00;;;;;;;;5048614;28;9698;-79
2023/09/25 02:29:20;;;;;;;;;1.00;1.00;;;;;;;;5044017;28;10488;-78
2023/09/25 02:31:48;;;;;;;;;1.00;1.00;;;;;;;;5052726;28;9737;-81
2023/09/25 02:34:16;;;;;;;;;1.00;1.00;;;;;;;;5050903;28;9870;-79
2023/09/25 02:36:44;;;;;;;;;1.00;1.00;;;;;;;;5049581;28;9779;-78
2023/09/25 02:39:11;;;;;;;;;1.00;1.00;;;;;;;;5049026;28;9639;-78
2023/09/25 02:41:41;;;;;;;;;1.00;1.00;;;;;;;;5048527;28;9924;-79
2023/09/25 02:44:09;;;;;;;;;2.50;0.75;;;;;;;;5038857;28;9936;-82
2023/09/25 02:46:36;;;;;;;;;1.00;1.00;;;;;;;;5042046;28;10010;-81
2023/09/25 02:49:05;;;;;;;;;0.50;0.50;;;;;;;;5048929;28;9919;-79
2023/09/25 02:51:32;;;;;;;;;1.00;1.00;;;;;;;;5037204;28;9795;-81
2023/09/25 02:53:59;;;;;;;;;1.00;1.00;;;;;;;;5036929;28;9847;-79
2023/09/25 02:56:26;;;;;;;;;1.00;1.00;;;;;;;;5048346;28;9829;-79
2023/09/25 02:58:53;;;;;;;;;1.00;1.00;;;;;;;;5046432;28;9923;-80
2023/09/25 03:01:21;;;;;;;;;1.00;1.00;;;;;;;;5050643;28;9870;-80
2023/09/25 03:03:48;;;;;;;;;1.00;1.00;;;;;;;;5062626;28;9842;-84
2023/09/25 03:06:17;;;;;;;;;1.00;1.00;;;;;;;;5048067;28;9871;-79
2023/09/25 03:08:44;;;;;;;;;1.00;1.00;;;;;;;;5048195;28;9862;-78
2023/09/25 03:11:11;;;;;;;;;1.00;1.00;;;;;;;;5044296;28;9958;-79
2023/09/25 03:13:42;;;;;;;;;1.00;1.00;;;;;;;;5041348;28;10099;-81
2023/09/25 03:16:16;;;;;;;;;1.00;1.00;;;;;;;;5048655;28;9847;-85
2023/09/25 03:18:43;;;;;;;;;0.00;0.00;;;;;;;;5040614;28;9847;-80
2023/09/25 03:21:12;;;;;;;;;2.50;2.00;;;;;;;;5052783;28;9988;-80
2023/09/25 03:23:44;;;;;;;;;1.00;1.00;;;;;;;;5052989;28;10024;-79
2023/09/25 03:26:15;;;;;;;;;1.50;1.50;;;;;;;;5054554;28;10054;-79
2023/09/25 03:28:43;;;;;;;;;1.25;1.25;;;;;;;;5054790;28;10082;-77
2023/09/25 03:31:11;;;;;;;;;2.25;2.25;;;;;;;;5049312;28;10008;-80
2023/09/25 03:33:38;;;;;;;;;1.25;1.25;;;;;;;;5054652;28;9930;-79
2023/09/25 03:36:06;;;;;;;;;3.00;1.75;;;;;;;;5049485;28;9831;-79
2023/09/25 03:38:34;;;;;;;;;1.00;1.00;;;;;;;;5047665;28;9942;-79
2023/09/25 03:41:03;;;;;;;;;2.00;2.00;;;;;;;;5045592;28;9860;-81
2023/09/25 03:43:31;;;;;;;;;2.00;2.00;;;;;;;;5061767;28;10168;-79
2023/09/25 03:45:58;;;;;;;;;0.75;0.75;;;;;;;;5051635;28;10078;-78
2023/09/25 03:48:25;;;;;;;;;2.00;2.00;;;;;;;;5050390;28;9967;-79
2023/09/25 03:50:52;;;;;;;;;2.00;2.00;;;;;;;;5051428;28;10015;-80
2023/09/25 03:53:20;;;;;;;;;1.00;1.00;;;;;;;;5048530;28;10169;-79
2023/09/25 03:55:50;;;;;;;;;1.00;1.00;;;;;;;;5046047;28;10010;-82
2023/09/25 03:58:21;;;;;;;;;1.00;1.00;;;;;;;;5050903;28;9991;-78
2023/09/25 04:00:52;;;;;;;;;2.00;2.00;;;;;;;;5052029;28;10581;-77
2023/09/25 04:03:19;;;;;;;;;1.75;1.75;;;;;;;;5051236;28;9831;-83
2023/09/25 04:05:47;;;;;;;;;1.00;1.00;;;;;;;;5054408;28;10667;-84
2023/09/25 04:08:14;;;;;;;;;1.00;1.00;;;;;;;;5057378;28;9879;-84
2023/09/25 04:10:44;;;;;;;;;0.00;0.00;;;;;;;;5046043;28;10616;-80
2023/09/25 04:13:12;;;;;;;;;2.00;2.00;;;;;;;;5051093;28;9789;-87
2023/09/25 04:15:42;;;;;;;;;1.25;1.25;;;;;;;;5051219;28;10109;-85
2023/09/25 04:18:09;;;;;;;;;2.00;2.00;;;;;;;;5049876;28;9860;-79
2023/09/25 04:20:39;;;;;;;;;1.50;1.50;;;;;;;;5050130;28;9804;-83
2023/09/25 04:23:06;;;;;;;;;1.25;1.00;;;;;;;;5059287;28;9983;-81
2023/09/25 04:25:33;;;;;;;;;1.00;1.00;;;;;;;;5053717;28;10023;-82
2023/09/25 04:28:02;;;;;;;;;1.75;1.00;;;;;;;;5045228;28;9973;-83
2023/09/25 04:30:30;;;;;;;;;2.00;1.00;;;;;;;;5050235;28;9898;-84
2023/09/25 04:33:06;;;;;;;;;0.50;0.50;;;;;;;;5050358;28;9939;-87
2023/09/25 04:35:33;;;;;;;;;1.00;1.00;;;;;;;;5051343;28;9855;-84
2023/09/25 04:38:07;;;;;;;;;1.25;1.25;;;;;;;;5040622;28;9857;-91
2023/09/25 04:40:35;;;;;;;;;0.75;0.75;;;;;;;;5049090;28;10159;-89
2023/09/25 04:46:00;;;;;;;;;1.00;1.00;;;;;;;;5041550;28;10004;-84
2023/09/25 04:48:30;;;;;;;;;2.00;2.00;;;;;;;;5047724;28;9954;-82
2023/09/25 04:50:57;;;;;;;;;0.75;0.75;;;;;;;;5049754;28;9853;-88
2023/09/25 04:53:25;;;;;;;;;1.25;1.25;;;;;;;;5051869;28;9782;-83
2023/09/25 04:55:53;;;;;;;;;4.00;2.50;;;;;;;;5050405;28;9858;-85
2023/09/25 04:58:20;;;;;;;;;1.00;1.00;;;;;;;;5049939;28;9952;-81
2023/09/25 05:00:48;;;;;;;;;1.00;1.00;;;;;;;;5053212;28;9790;-79
2023/09/25 05:03:15;;;;;;;;;1.00;1.00;;;;;;;;5055736;28;10040;-83
2023/09/25 05:05:44;;;;;;;;;0.00;0.00;;;;;;;;5053867;28;9927;-80
2023/09/25 05:08:14;;;;;;;;;1.00;1.00;;;;;;;;5054140;28;9914;-81
2023/09/25 05:10:49;;;;;;;;;1.50;1.50;;;;;;;;5054723;28;9948;-77
2023/09/25 05:13:16;;;;;;;;;2.00;2.00;;;;;;;;5052896;28;9842;-76
2023/09/25 05:15:44;;;;;;;;;1.00;1.00;;;;;;;;5046704;28;10204;-79
2023/09/25 05:18:11;;;;;;;;;2.00;2.00;;;;;;;;5047347;28;10136;-80
2023/09/25 05:20:38;;;;;;;;;2.00;1.00;;;;;;;;5046415;28;10105;-77
2023/09/25 05:23:07;;;;;;;;;3.25;2.50;;;;;;;;5046621;28;9994;-72
2023/09/25 05:25:34;;;;;;;;;3.00;3.00;;;;;;;;5048892;28;10102;-73
2023/09/25 05:28:05;;;;;;;;;1.00;1.00;;;;;;;;5050281;28;10044;-77
2023/09/25 05:30:32;;;;;;;;;2.00;2.00;;;;;;;;5048703;28;9911;-72
2023/09/25 05:32:59;;;;;;;;;1.00;1.00;;;;;;;;5048852;28;9930;-72
2023/09/25 05:35:26;;;;;;;;;1.50;1.50;;;;;;;;5046416;28;10165;-74
2023/09/25 05:37:53;;;;;;;;;2.00;2.00;;;;;;;;5035495;28;10008;-73
2023/09/25 05:40:22;;;;;;;;;3.00;3.00;;;;;;;;5055600;28;10136;-77
2023/09/25 05:42:50;;;;;;;;;1.50;1.00;;;;;;;;5048854;28;10977;-83
2023/09/25 05:45:20;;;;;;;;;1.00;1.00;;;;;;;;5048874;28;10086;-85
2023/09/25 05:47:50;;;;;;;;;2.00;0.00;;;;;;;;5048665;28;10003;-76
2023/09/25 05:50:17;;;;;;;;;5.00;1.75;;;;;;;;5049026;28;10681;-71
2023/09/25 05:52:47;;;;;;;;;3.75;1.25;;;;;;;;5039656;28;9984;-77
2023/09/25 05:55:17;;;;;;;;;5.25;3.00;;;;;;;;5050811;28;9946;-72
2023/09/25 05:57:45;;;;;;;;;3.00;1.25;;;;;;;;5046875;28;10022;-72
2023/09/25 06:00:14;;;;;;;;;5.50;3.00;;;;;;;;5048107;28;10102;-85
2023/09/25 06:02:42;;;;;;;;;2.00;2.00;;;;;;;;5056010;28;9935;-78
2023/09/25 06:05:12;;;;;;;;;4.50;3.00;;;;;;;;5056431;28;10090;-76
2023/09/25 06:07:39;;;;;;;;;3.00;3.00;;;;;;;;5048155;28;9911;-77
2023/09/25 06:10:08;;;;;;;;;4.00;3.00;;;;;;;;5048195;28;9929;-79
2023/09/25 06:12:36;;;;;;;;;4.75;3.00;;;;;;;;5048581;28;9938;-83
2023/09/25 06:15:09;;;;;;;;;1.75;1.75;;;;;;;;5048544;28;9947;-72
2023/09/25 06:17:37;;;;;;;;;3.00;3.00;;;;;;;;5048130;28;9762;-79
2023/09/25 06:20:13;;;;;;;;;3.75;3.75;;;;;;;;5048070;28;9992;-77
2023/09/25 06:22:50;;;;;;;;;;;;;;;;;;;;;
2023/09/25 06:25:18;;;;;;;;;2.75;2.75;;;;;;;;5048305;28;9590;-72
2023/09/25 06:27:45;;;;;;;;;4.25;4.25;;;;;;;;5046261;28;9802;-73
2023/09/25 06:30:16;;;;;;;;;3.75;2.50;;;;;;;;5040067;28;9734;-73
2023/09/25 06:32:43;;;;;;;;;3.25;3.25;;;;;;;;5048313;28;9654;-78
2023/09/25 06:35:10;;;;;;;;;3.00;3.00;;;;;;;;5048011;28;9564;-72
2023/09/25 06:37:38;;;;;;;;;3.00;3.00;;;;;;;;5051088;28;9535;-72
2023/09/25 06:40:09;;;;;;;;;4.25;4.25;;;;;;;;5053725;28;9559;-74
2023/09/25 06:42:37;;;;;;;;;5.00;3.00;;;;;;;;5039297;28;9505;-74
2023/09/25 06:45:05;;;;;;;;;3.00;3.00;;;;;;;;5049907;28;9472;-75
2023/09/25 06:47:34;;;;;;;;;2.00;2.00;;;;;;;;5050990;28;9378;-73
2023/09/25 06:50:02;;;;;;;;;3.00;3.00;;;;;;;;5049815;28;9354;-78
2023/09/25 06:52:29;;;;;;;;;0.67;0.67;;;;;;;;5050975;28;9250;-75
2023/09/25 06:54:57;;;;;;;;;5.00;3.00;;;;;;;;5049944;28;9256;-74
2023/09/25 06:57:25;;;;;;;;;2.00;2.00;;;;;;;;5049893;28;9242;-73
2023/09/25 06:59:52;;;;;;;;;2.00;2.00;;;;;;;;5047728;28;9266;-83
2023/09/25 07:02:20;;;;;;;;;2.00;2.00;;;;;;;;5047647;28;9168;-71
2023/09/25 07:04:49;;;;;;;;;3.00;3.00;;;;;;;;5048014;28;9260;-77
2023/09/25 07:07:16;;;;;;;;;3.67;2.00;;;;;;;;5040104;28;9116;-74
2023/09/25 07:09:45;;;;;;;;;1.00;1.00;;;;;;;;5047414;28;8953;-87
2023/09/25 07:12:15;;;;;;;;;1.00;1.00;;;;;;;;5047732;28;8858;-80
2023/09/25 07:14:48;;;;;;;;;2.25;2.25;;;;;;;;5047103;28;8950;-77
2023/09/25 07:17:24;;;;;;;;;2.00;2.00;;;;;;;;5044603;28;8853;-79
2023/09/25 07:19:59;;;;;;;;;1.25;1.25;;;;;;;;5038035;28;8858;-80
2023/09/25 07:22:27;;;;;;;;;2.25;1.50;;;;;;;;5048609;28;8950;-78
2023/09/25 07:24:55;;;;;;;;;1.25;1.25;;;;;;;;5053454;28;8850;-72
2023/09/25 07:27:22;;;;;;;;;1.25;1.25;;;;;;;;5049721;28;8891;-72
2023/09/25 07:29:50;;;;;;;;;1.50;1.00;;;;;;;;5043006;28;8845;-71
2023/09/25 07:32:19;;;;;;;;;1.00;1.00;;;;;;;;5042023;28;8894;-74
2023/09/25 07:34:47;;;;;;;;;2.00;2.00;;;;;;;;5041364;28;8939;-73
2023/09/25 07:37:17;;;;;;;;;2.00;2.00;;;;;;;;5046228;28;8850;-88
2023/09/25 07:39:45;;;;;;;;;1.00;1.00;;;;;;;;5054948;28;8969;-73
2023/09/25 07:42:12;;;;;;;;;2.00;2.00;;;;;;;;5044959;28;8892;-87
2023/09/25 07:44:40;;;;;;;;;1.00;1.00;;;;;;;;5046880;28;8915;-78
2023/09/25 07:47:10;;;;;;;;;2.25;2.25;;;;;;;;5046786;28;8988;-76
2023/09/25 07:49:40;;;;;;;;;2.75;2.75;;;;;;;;5047915;28;8880;-78
2023/09/25 07:52:15;;;;;;;;;2.75;2.75;;;;;;;;5035262;28;9894;-78
2023/09/25 07:54:45;;;;;;;;;2.00;2.00;;;;;;;;5048436;28;8854;-72
2023/09/25 07:57:29;;;;;;;;;1.00;1.00;;;;;;;;5120116;27;9658;-75
2023/09/25 07:59:57;;;;;;;;;2.00;2.00;;;;;;;;5102149;28;8840;-78
2023/09/25 08:02:25;;;;;;;;;0.25;0.25;;;;;;;;5081253;27;8825;-85
2023/09/25 08:04:52;;;;;;;;;1.75;1.75;;;;;;;;5077738;28;8891;-72
2023/09/25 08:07:20;;;;;;;;;2.00;2.00;;;;;;;;5079828;28;8831;-79
2023/09/25 08:09:49;;;;;;;;;1.00;1.00;;;;;;;;5075591;28;8861;-73
2023/09/25 08:12:16;;;;;;;;;1.00;1.00;;;;;;;;5084775;28;8835;-72
2023/09/25 08:14:45;;;;;;;;;1.50;1.50;;;;;;;;5082347;28;8985;-80
2023/09/25 08:17:14;;;;;;;;;2.75;2.75;;;;;;;;5084885;28;8846;-75
2023/09/25 08:19:41;;;;;;;;;3.00;1.00;;;;;;;;5084688;28;8851;-72
2023/09/25 08:22:10;;;;;;;;;1.50;1.50;;;;;;;;5082027;28;9463;-76
2023/09/25 08:24:37;;;;;;;;;0.75;0.75;;;;;;;;5082725;28;8839;-73
2023/09/25 08:27:04;;;;;;;;;2.25;2.25;;;;;;;;5084559;28;8851;-73
2023/09/25 08:29:32;;;;;;;;;2.00;2.00;;;;;;;;5084109;28;8853;-72
2023/09/25 08:32:00;;;;;;;;;1.00;1.00;;;;;;;;5080396;28;8917;-70
2023/09/25 08:34:28;;;;;;;;;1.00;1.00;;;;;;;;5087624;28;8865;-76
2023/09/25 08:36:55;;;;;;;;;1.00;1.00;;;;;;;;5076721;28;8835;-79
2023/09/25 08:39:22;;;;;;;;;2.75;2.00;;;;;;;;5072856;28;8879;-79
2023/09/25 08:41:49;;;;;;;;;2.75;1.75;;;;;;;;5074008;28;8988;-75
2023/09/25 08:44:17;;;;;;;;;0.75;0.75;;;;;;;;5085247;28;8863;-74
2023/09/25 08:46:45;;;;;;;;;1.75;1.75;;;;;;;;5084769;28;8976;-78
2023/09/25 08:49:19;;;;;;;;;1.00;1.00;;;;;;;;5084196;28;8846;-72
2023/09/25 08:51:46;;;;;;;;;1.25;1.25;;;;;;;;5082463;28;8936;-79
2023/09/25 08:54:14;;;;;;;;;1.80;1.80;;;;;;;;5078705;28;8853;-70
2023/09/25 08:56:41;;;;;;;;;1.40;1.40;;;;;;;;5082061;28;8831;-71
2023/09/25 08:59:08;;;;;;;;;1.00;1.00;;;;;;;;5082246;28;8916;-78
2023/09/25 09:01:36;;;;;;;;;1.00;1.00;;;;;;;;5078905;28;8848;-71
2023/09/25 09:04:03;;;;;;;;;1.60;1.60;;;;;;;;5084734;28;8873;-71
2023/09/25 09:06:32;;;;;;;;;1.80;1.80;;;;;;;;5080030;28;8953;-76
2023/09/25 09:08:59;;;;;;;;;0.80;0.80;;;;;;;;5071291;28;8855;-73
2023/09/25 09:11:27;;;;;;;;;1.80;1.80;;;;;;;;5071432;28;8851;-83
2023/09/25 09:13:55;;;;;;;;;2.20;2.20;;;;;;;;5071849;28;8894;-74
2023/09/25 09:16:23;;;;;;;;;0.80;0.80;;;;;;;;5068465;28;8856;-71
2023/09/25 09:18:51;;;;;;;;;2.00;2.00;;;;;;;;5055856;28;8861;-75
2023/09/25 09:21:24;;;;;;;;;1.40;1.00;;;;;;;;5070744;28;8843;-71
2023/09/25 09:23:55;;;;;;;;;1.00;1.00;;;;;;;;5070919;28;8849;-74
2023/09/25 09:26:23;;;;;;;;;2.00;2.00;;;;;;;;5077110;28;8854;-73
2023/09/25 09:28:53;;;;;;;;;2.00;2.00;;;;;;;;5072256;28;8951;-75
2023/09/25 09:31:20;;;;;;;;;1.00;1.00;;;;;;;;5070866;28;8853;-85
2023/09/25 09:33:48;;;;;;;;;1.00;1.00;;;;;;;;5057235;28;9644;-71
2023/09/25 09:36:19;;;;;;;;;1.80;1.80;;;;;;;;5071523;28;8862;-79
2023/09/25 09:38:48;;;;;;;;;0.40;0.40;;;;;;;;5052247;28;8845;-75
2023/09/25 09:41:17;;;;;;;;;3.00;1.40;;;;;;;;5060567;28;8867;-72
2023/09/25 09:43:44;;;;;;;;;2.20;1.80;;;;;;;;5070381;28;8843;-74
2023/09/25 09:46:14;;;;;;;;;1.00;1.00;;;;;;;;5069376;28;8908;-76
2023/09/25 09:48:44;;;;;;;;;0.80;0.80;;;;;;;;5069988;28;8843;-72
2023/09/25 09:51:17;;;;;;;;;2.00;0.80;;;;;;;;5069766;28;8850;-74
2023/09/25 09:53:44;;;;;;;;;1.20;1.20;;;;;;;;5069741;28;8878;-75
2023/09/25 09:56:16;;;;;;;;;4.20;4.20;;;;;;;;5071426;28;8997;-72
2023/09/25 09:58:50;;;;;;;;;6.40;6.40;;;;;;;;5069411;28;8863;-79
2023/09/25 10:01:18;;;;;;;;;4.80;4.80;;;;;;;;5066036;28;8809;-79
2023/09/25 10:03:47;;;;;;;;;2.00;2.00;;;;;;;;5069649;28;8873;-71
2023/09/25 10:06:17;;;;;;;;;1.80;1.80;;;;;;;;5070908;28;8878;-71
2023/09/25 10:09:00;;;;;;;;;1.00;1.00;;;;;;;;5071695;28;8863;-78
2023/09/25 10:11:27;;;;;;;;;2.00;2.00;;;;;;;;5067901;28;8874;-78
2023/09/25 10:13:57;;;;;;;;;1.80;1.80;;;;;;;;5063920;28;8898;-71
2023/09/25 10:16:24;;;;;;;;;1.40;1.40;;;;;;;;5058957;28;9665;-74
2023/09/25 10:18:53;;;;;;;;;2.00;2.00;;;;;;;;5063250;28;8867;-71
2023/09/25 10:21:21;;;;;;;;;1.00;1.00;;;;;;;;5070521;28;8878;-72
2023/09/25 10:23:54;;;;;;;;;1.00;1.00;;;;;;;;5070682;28;8847;-72
2023/09/25 10:26:22;;;;;;;;;2.80;2.00;;;;;;;;5064147;28;8988;-71
2023/09/25 10:29:00;;;;;;;;;1.20;1.20;;;;;;;;5068580;28;8866;-75
2023/09/25 10:31:29;;;;;;;;;1.80;1.80;;;;;;;;5066238;28;8811;-75
2023/09/25 10:33:58;;;;;;;;;2.00;1.80;;;;;;;;5067222;28;8892;-71
2023/09/25 10:36:37;;;;;;;;;0.80;0.80;;;;;;;;5060411;28;8948;-71
2023/09/25 10:39:08;;;;;;;;;3.40;2.00;;;;;;;;5065498;28;8921;-79
2023/09/25 10:41:35;;;;;;;;;1.80;1.80;;;;;;;;5066238;28;8878;-85
2023/09/25 10:44:04;;;;;;;;;0.20;0.20;;;;;;;;5060513;28;8858;-86
2023/09/25 10:46:31;;;;;;;;;1.00;1.00;;;;;;;;5057878;28;8900;-74
2023/09/25 10:48:59;;;;;;;;;1.20;1.20;;;;;;;;5054862;28;8858;-71
2023/09/25 10:51:26;;;;;;;;;3.00;1.80;;;;;;;;5062649;28;8855;-79
2023/09/25 10:53:53;;;;;;;;;1.60;1.60;;;;;;;;5066004;28;8835;-74
2023/09/25 10:56:21;;;;;;;;;3.00;1.00;;;;;;;;5068879;28;8956;-74
2023/09/25 10:58:50;;;;;;;;;1.60;1.60;;;;;;;;5057847;28;8851;-73
2023/09/25 11:01:24;;;;;;;;;0.80;0.80;;;;;;;;5066487;28;8836;-75
2023/09/25 11:03:55;;;;;;;;;0.80;0.80;;;;;;;;5067151;28;8870;-72
2023/09/25 11:06:22;;;;;;;;;3.60;1.20;;;;;;;;5067739;28;8827;-75
2023/09/25 11:08:58;;;;;;;;;2.60;1.80;;;;;;;;5064701;28;8819;-80
2023/09/25 11:11:25;;;;;;;;;1.20;1.20;;;;;;;;5059794;28;8983;-82
2023/09/25 11:13:54;;;;;;;;;1.20;1.20;;;;;;;;5068671;28;8851;-84
2023/09/25 11:16:24;;;;;;;;;0.60;0.60;;;;;;;;5070004;28;8849;-82
2023/09/25 11:19:07;;;;;;;;;1.20;1.20;;;;;;;;5068347;28;8843;-81
2023/09/25 11:21:34;;;;;;;;;1.20;1.20;;;;;;;;5069299;28;8846;-78
2023/09/25 11:24:06;;;;;;;;;0.80;0.80;;;;;;;;5066308;28;8877;-85
2023/09/25 11:26:37;;;;;;;;;2.20;0.20;;;;;;;;5068800;28;8875;-78
2023/09/25 11:29:07;;;;;;;;;1.00;1.00;;;;;;;;5069389;28;8866;-74
2023/09/25 11:31:39;;;;;;;;;2.80;0.80;;;;;;;;5068818;28;8791;-77
2023/09/25 11:34:08;;;;;;;;;2.20;0.60;;;;;;;;5068326;28;8847;-75
2023/09/25 11:36:38;;;;;;;;;0.80;0.80;;;;;;;;5068978;28;8971;-80
2023/09/25 11:39:14;;;;;;;;;1.20;1.20;;;;;;;;5067343;28;8847;-88
2023/09/25 11:41:41;;;;;;;;;1.40;1.40;;;;;;;;5067642;28;8890;-84
2023/09/25 11:44:12;;;;;;;;;1.00;1.00;;;;;;;;5068186;28;8981;-74
2023/09/25 11:46:45;;;;;;;;;1.20;1.20;;;;;;;;5068130;28;8893;-73
2023/09/25 11:49:13;;;;;;;;;0.00;0.00;;;;;;;;5057320;28;8851;-77
2023/09/25 11:51:40;;;;;;;;;1.20;1.00;;;;;;;;5070036;28;8931;-76
2023/09/25 11:54:08;;;;;;;;;1.00;1.00;;;;;;;;5070183;28;8932;-73
2023/09/25 11:56:36;;;;;;;;;1.00;1.00;;;;;;;;5070856;28;8877;-74
2023/09/25 11:59:03;;;;;;;;;2.00;1.60;;;;;;;;5070222;28;8967;-73
2023/09/25 12:01:31;;;;;;;;;1.00;1.00;;;;;;;;5070583;28;8779;-74
2023/09/25 12:03:59;;;;;;;;;0.60;0.60;;;;;;;;5069989;28;9683;-75
2023/09/25 12:06:26;;;;;;;;;1.20;1.20;;;;;;;;5065359;28;8881;-77
2023/09/25 12:08:55;;;;;;;;;1.00;1.00;;;;;;;;5067222;28;8832;-72
2023/09/25 12:11:24;;;;;;;;;0.20;0.20;;;;;;;;5066955;28;8847;-84
2023/09/25 12:13:51;;;;;;;;;1.60;1.60;;;;;;;;5067650;28;8883;-79
2023/09/25 12:16:19;;;;;;;;;1.00;1.00;;;;;;;;5067113;28;9657;-72
2023/09/25 12:18:50;;;;;;;;;2.20;1.40;;;;;;;;5067498;28;8957;-72
2023/09/25 12:21:19;;;;;;;;;1.00;1.00;;;;;;;;5066612;28;9627;-74
2023/09/25 12:23:48;;;;;;;;;1.00;1.00;;;;;;;;5067481;28;9658;-79
2023/09/25 12:26:18;;;;;;;;;1.00;1.00;;;;;;;;5066999;28;8851;-77
2023/09/25 12:28:45;;;;;;;;;2.00;1.80;;;;;;;;5067655;28;8851;-80
2023/09/25 12:31:15;;;;;;;;;1.00;1.00;;;;;;;;5066772;28;8796;-81
2023/09/25 12:33:42;;;;;;;;;1.00;1.00;;;;;;;;5067344;28;8894;-77
2023/09/25 12:36:09;;;;;;;;;0.80;0.80;;;;;;;;5067333;28;8835;-76
2023/09/25 12:38:39;;;;;;;;;1.20;1.20;;;;;;;;5066790;28;8839;-75
2023/09/25 12:41:07;;;;;;;;;1.20;1.20;;;;;;;;5067067;28;8844;-73
2023/09/25 12:43:34;;;;;;;;;1.00;1.00;;;;;;;;5069503;28;8880;-76
2023/09/25 12:46:01;;;;;;;;;1.00;1.00;;;;;;;;5070698;28;8871;-74
2023/09/25 12:48:28;;;;;;;;;1.60;1.00;;;;;;;;5070534;28;8839;-74
2023/09/25 12:50:55;;;;;;;;;0.40;0.40;;;;;;;;5070578;28;8969;-80
2023/09/25 12:53:22;;;;;;;;;1.00;1.00;;;;;;;;5069747;28;8871;-73
2023/09/25 12:55:51;;;;;;;;;0.80;0.80;;;;;;;;5070352;28;9637;-72
2023/09/25 12:58:18;;;;;;;;;1.80;1.80;;;;;;;;5070337;28;8858;-73
2023/09/25 13:00:46;;;;;;;;;1.40;1.00;;;;;;;;5070770;28;8807;-79
2023/09/25 13:03:13;;;;;;;;;0.00;0.00;;;;;;;;5070883;28;8865;-79
2023/09/25 13:05:41;;;;;;;;;3.00;1.00;;;;;;;;5071941;28;8861;-79
2023/09/25 13:08:08;;;;;;;;;0.80;0.80;;;;;;;;5069959;28;9298;-76
2023/09/25 13:10:35;;;;;;;;;1.60;1.60;;;;;;;;5070463;28;8904;-80
2023/09/25 13:13:03;;;;;;;;;2.80;1.80;;;;;;;;5069876;28;9598;-81
2023/09/25 13:15:32;;;;;;;;;1.00;1.00;;;;;;;;5070564;28;8847;-77
2023/09/25 13:17:59;;;;;;;;;1.00;1.00;;;;;;;;5070004;28;8849;-79
2023/09/25 13:20:26;;;;;;;;;3.00;3.00;;;;;;;;5070505;28;8847;-73
2023/09/25 13:22:53;;;;;;;;;1.00;1.00;;;;;;;;5069819;28;8854;-76
2023/09/25 13:25:21;;;;;;;;;0.40;0.40;;;;;;;;5069197;28;8851;-77
2023/09/25 13:27:51;;;;;;;;;1.00;1.00;;;;;;;;5069999;28;8854;-73
2023/09/25 13:30:21;;;;;;;;;1.20;0.80;;;;;;;;5070763;28;8965;-73
2023/09/25 13:32:48;;;;;;;;;1.80;1.80;;;;;;;;5070898;28;8851;-72
2023/09/25 13:35:16;;;;;;;;;2.00;2.00;;;;;;;;5073034;28;8888;-77
2023/09/25 13:37:44;;;;;;;;;0.40;0.40;;;;;;;;5073151;28;8921;-73
2023/09/25 13:40:16;;;;;;;;;1.40;1.00;;;;;;;;5072704;28;8847;-75
2023/09/25 13:42:44;;;;;;;;;2.20;1.00;;;;;;;;5062737;28;8839;-75
2023/09/25 13:45:15;;;;;;;;;1.60;1.60;;;;;;;;5071296;28;8862;-80
2023/09/25 13:47:44;;;;;;;;;1.00;1.00;;;;;;;;5070781;28;8851;-86
2023/09/25 13:50:12;;;;;;;;;1.80;1.00;;;;;;;;5069436;28;8847;-83
2023/09/25 13:52:39;;;;;;;;;0.00;0.00;;;;;;;;5069677;28;8940;-74
2023/09/25 13:55:09;;;;;;;;;0.80;0.80;;;;;;;;5068941;28;8834;-75
2023/09/25 13:57:37;;;;;;;;;1.00;1.00;;;;;;;;5069963;28;8850;-82
2023/09/25 14:00:08;;;;;;;;;1.80;1.80;;;;;;;;5069792;28;8858;-89
2023/09/25 14:02:35;;;;;;;;;0.40;0.40;;;;;;;;5069544;28;8811;-84
2023/09/25 14:05:04;;;;;;;;;1.80;1.80;;;;;;;;5071321;28;9496;-80
2023/09/25 14:07:32;;;;;;;;;1.00;1.00;;;;;;;;5071895;28;8891;-83
2023/09/25 14:09:59;;;;;;;;;0.20;0.20;;;;;;;;5069555;28;8877;-76
2023/09/25 14:12:26;;;;;;;;;1.00;1.00;;;;;;;;5069678;28;8847;-72
2023/09/25 14:14:54;;;;;;;;;1.00;1.00;;;;;;;;5068713;28;8865;-75
2023/09/25 14:17:23;;;;;;;;;1.00;1.00;;;;;;;;5068853;28;8862;-77
2023/09/25 14:19:50;;;;;;;;;0.00;0.00;;;;;;;;5068200;28;9598;-72
2023/09/25 14:22:19;;;;;;;;;2.40;2.40;;;;;;;;5081014;28;8872;-72
2023/09/25 14:24:47;;;;;;;;;1.80;1.80;;;;;;;;5068388;28;8842;-72
2023/09/25 14:27:17;;;;;;;;;2.00;0.20;;;;;;;;5068635;28;9005;-76
2023/09/25 14:29:44;;;;;;;;;0.00;0.00;;;;;;;;5057057;28;8865;-77
2023/09/25 14:32:11;;;;;;;;;0.00;0.00;;;;;;;;5066819;28;8805;-77
2023/09/25 14:34:38;;;;;;;;;0.00;0.00;;;;;;;;5068916;28;8873;-77
2023/09/25 14:37:05;;;;;;;;;1.00;1.00;;;;;;;;5068690;28;8889;-73
2023/09/25 14:39:34;;;;;;;;;0.80;0.80;;;;;;;;5069267;28;8844;-73
2023/09/25 14:42:01;;;;;;;;;1.00;1.00;;;;;;;;5067887;28;8855;-73
2023/09/25 14:44:28;;;;;;;;;1.20;0.40;;;;;;;;5068157;28;8885;-74
2023/09/25 14:46:56;;;;;;;;;0.80;0.80;;;;;;;;5067847;28;8878;-73
2023/09/25 14:49:23;;;;;;;;;1.00;1.00;;;;;;;;5068129;28;8834;-73
2023/09/25 14:51:51;;;;;;;;;3.00;1.60;;;;;;;;5067943;28;8863;-75
2023/09/25 14:54:19;;;;;;;;;1.60;1.60;;;;;;;;5068391;28;8851;-72
2023/09/25 14:56:50;;;;;;;;;2.20;1.40;;;;;;;;5068251;28;8981;-74
2023/09/25 14:59:18;;;;;;;;;0.60;0.60;;;;;;;;5068608;28;8842;-77
2023/09/25 15:01:45;;;;;;;;;0.60;0.60;;;;;;;;5067849;28;9573;-73
2023/09/25 15:04:12;;;;;;;;;2.00;2.00;;;;;;;;5067704;28;8839;-72
2023/09/25 15:06:40;;;;;;;;;0.80;0.80;;;;;;;;5067465;28;8839;-75